Time;durP1;ratioP1;P1;durP2;ratioP2;P2;SDS_P1;SDS_P2;PMS_P1;PMS_P2;Temp;Humidity;BMP_temperature;BMP_pressure;BME280_temperature;BME280_humidity;BME280_pressure;Samples;Min_cycle;Max_cycle;Signal;HPM_P1;HPM_P2
2024/01/18 00:01:38;;;;;;;0.70;0.70;;;;;;;;;;6187653;23;20423;-88
2024/01/18 00:04:04;;;;;;;1.00;0.90;;;;;;;;;;6189619;23;20450;-89
2024/01/18 00:06:32;;;;;;;1.30;0.90;;;;;;;;;;6193436;23;20384;-89
2024/01/18 00:08:58;;;;;;;1.60;1.10;;;;;;;;;;6189034;23;20371;-90
2024/01/18 00:11:25;;;;;;;0.80;0.80;;;;;;;;;;6189413;23;20352;-90
2024/01/18 00:13:51;;;;;;;1.23;1.13;;;;;;;;;;6186980;23;20364;-90
2024/01/18 00:16:17;;;;;;;11.60;4.90;;;;;;;;;;6194235;23;20388;-91
2024/01/18 00:18:43;;;;;;;2.80;1.77;;;;;;;;;;6187779;23;21253;-91
2024/01/18 00:21:09;;;;;;;1.50;0.90;;;;;;;;;;6186448;23;20443;-91
2024/01/18 00:23:35;;;;;;;1.77;1.10;;;;;;;;;;6189584;23;20392;-90
2024/01/18 00:26:01;;;;;;;2.00;0.87;;;;;;;;;;6190496;23;20407;-90
2024/01/18 00:28:27;;;;;;;0.70;0.60;;;;;;;;;;6186309;23;20407;-90
2024/01/18 00:30:53;;;;;;;1.40;1.07;;;;;;;;;;6208826;23;20364;-90
2024/01/18 00:33:19;;;;;;;1.30;1.20;;;;;;;;;;6188419;23;20425;-90
2024/01/18 00:35:45;;;;;;;0.87;0.70;;;;;;;;;;6188429;23;20503;-90
2024/01/18 00:38:11;;;;;;;0.90;0.70;;;;;;;;;;6215939;23;20364;-90
2024/01/18 00:40:37;;;;;;;1.03;0.80;;;;;;;;;;6186696;23;20446;-89
2024/01/18 00:43:05;;;;;;;1.13;1.03;;;;;;;;;;6187668;23;20432;-91
2024/01/18 00:45:31;;;;;;;1.00;0.97;;;;;;;;;;6187966;23;20403;-90
2024/01/18 00:47:58;;;;;;;1.13;1.00;;;;;;;;;;6190561;23;20388;-90
2024/01/18 00:50:24;;;;;;;1.47;1.37;;;;;;;;;;6189782;23;20392;-89
2024/01/18 00:52:51;;;;;;;1.17;0.87;;;;;;;;;;6189324;23;20378;-91
2024/01/18 00:55:16;;;;;;;1.10;1.00;;;;;;;;;;6191699;23;20390;-90
2024/01/18 00:57:42;;;;;;;1.40;1.10;;;;;;;;;;6192891;23;20408;-91
2024/01/18 01:00:09;;;;;;;2.30;1.37;;;;;;;;;;6187896;23;20384;-90
2024/01/18 01:02:35;;;;;;;2.13;1.00;;;;;;;;;;6191239;23;20415;-90
2024/01/18 01:05:01;;;;;;;1.97;1.17;;;;;;;;;;6188989;23;20837;-90
2024/01/18 01:07:27;;;;;;;2.87;1.13;;;;;;;;;;6219919;23;20372;-91
2024/01/18 01:09:53;;;;;;;1.90;1.20;;;;;;;;;;6192505;23;20637;-91
2024/01/18 01:12:21;;;;;;;1.10;1.00;;;;;;;;;;6197179;23;20650;-90
2024/01/18 01:14:47;;;;;;;1.57;0.83;;;;;;;;;;6194174;23;20396;-90
2024/01/18 01:17:16;;;;;;;1.10;1.00;;;;;;;;;;6192266;23;20474;-90
2024/01/18 01:19:45;;;;;;;1.00;0.80;;;;;;;;;;6220684;23;20364;-90
2024/01/18 01:22:12;;;;;;;1.33;1.00;;;;;;;;;;6193553;23;20420;-91
2024/01/18 01:24:40;;;;;;;1.57;1.20;;;;;;;;;;6190644;23;20400;-89
2024/01/18 01:27:06;;;;;;;1.30;1.20;;;;;;;;;;6194593;23;20717;-90
2024/01/18 01:29:35;;;;;;;1.40;1.23;;;;;;;;;;6193002;23;20383;-89
2024/01/18 01:32:02;;;;;;;0.60;0.60;;;;;;;;;;6196401;23;20372;-90
2024/01/18 01:34:28;;;;;;;1.17;0.80;;;;;;;;;;6193750;23;20718;-90
2024/01/18 01:36:54;;;;;;;1.47;0.90;;;;;;;;;;6223923;23;20374;-89
2024/01/18 01:39:20;;;;;;;1.07;0.90;;;;;;;;;;6191319;23;20404;-89
2024/01/18 01:41:46;;;;;;;1.60;1.00;;;;;;;;;;6192526;23;20430;-89
2024/01/18 01:44:12;;;;;;;1.67;0.90;;;;;;;;;;6191115;23;20381;-90
2024/01/18 01:46:39;;;;;;;1.80;1.10;;;;;;;;;;6192515;23;20380;-89
2024/01/18 01:49:05;;;;;;;1.30;1.20;;;;;;;;;;6191881;23;20368;-90
2024/01/18 01:51:41;;;;;;;0.80;0.70;;;;;;;;;;6196268;23;20387;-91
2024/01/18 01:54:07;;;;;;;0.70;0.70;;;;;;;;;;6192124;23;20376;-90
2024/01/18 01:56:33;;;;;;;1.03;0.93;;;;;;;;;;6195379;23;20394;-89
2024/01/18 01:58:59;;;;;;;0.90;0.90;;;;;;;;;;6189741;23;20907;-90
2024/01/18 02:01:25;;;;;;;1.90;1.00;;;;;;;;;;6192933;23;20432;-90
2024/01/18 02:03:51;;;;;;;1.10;0.70;;;;;;;;;;6191286;23;20722;-90
2024/01/18 02:06:17;;;;;;;1.83;0.80;;;;;;;;;;6218483;23;20360;-90
2024/01/18 02:08:44;;;;;;;0.60;0.50;;;;;;;;;;6193416;23;20368;-90
2024/01/18 02:11:10;;;;;;;1.20;0.93;;;;;;;;;;6195897;23;20414;-90
2024/01/18 02:13:37;;;;;;;0.90;0.73;;;;;;;;;;6217868;23;20372;-89
2024/01/18 02:16:03;;;;;;;1.00;1.00;;;;;;;;;;6193034;23;20412;-91
2024/01/18 02:18:29;;;;;;;1.83;1.13;;;;;;;;;;6190855;23;20380;-90
2024/01/18 02:20:55;;;;;;;0.90;0.73;;;;;;;;;;6195587;23;20714;-92
2024/01/18 02:23:21;;;;;;;1.37;0.67;;;;;;;;;;6190715;23;20372;-90
2024/01/18 02:25:47;;;;;;;2.03;0.90;;;;;;;;;;6215714;23;20364;-89
2024/01/18 02:28:13;;;;;;;0.70;0.70;;;;;;;;;;6190489;23;20395;-91
2024/01/18 02:30:39;;;;;;;1.83;0.70;;;;;;;;;;6190527;23;20386;-91
2024/01/18 02:33:05;;;;;;;1.00;1.00;;;;;;;;;;6221025;23;20431;-91
2024/01/18 02:35:31;;;;;;;1.13;0.80;;;;;;;;;;6191057;23;20364;-90
2024/01/18 02:37:57;;;;;;;0.60;0.60;;;;;;;;;;6194705;23;20390;-91
2024/01/18 02:40:23;;;;;;;1.10;0.83;;;;;;;;;;6191252;23;20370;-90
2024/01/18 02:42:49;;;;;;;2.30;0.70;;;;;;;;;;6194063;23;20474;-90
2024/01/18 02:45:14;;;;;;;0.63;0.63;;;;;;;;;;6190815;23;20446;-91
2024/01/18 02:47:41;;;;;;;0.90;0.63;;;;;;;;;;6192341;23;20400;-90
2024/01/18 02:50:07;;;;;;;1.10;0.73;;;;;;;;;;6192822;23;20396;-91
2024/01/18 02:52:33;;;;;;;0.70;0.60;;;;;;;;;;6191919;23;20392;-92
2024/01/18 02:54:59;;;;;;;2.70;0.90;;;;;;;;;;6193144;23;20492;-91
2024/01/18 02:57:25;;;;;;;0.90;0.80;;;;;;;;;;6191664;23;20440;-91
2024/01/18 02:59:52;;;;;;;1.53;0.90;;;;;;;;;;6218158;23;20403;-91
2024/01/18 03:02:18;;;;;;;1.20;1.07;;;;;;;;;;6191557;23;20458;-91
2024/01/18 03:04:43;;;;;;;0.63;0.60;;;;;;;;;;6191028;23;20384;-91
2024/01/18 03:07:10;;;;;;;0.87;0.70;;;;;;;;;;6193080;23;20384;-91
2024/01/18 03:09:37;;;;;;;1.33;0.80;;;;;;;;;;6193956;23;20400;-91
2024/01/18 03:12:03;;;;;;;0.90;0.80;;;;;;;;;;6192911;23;20383;-91
2024/01/18 03:14:29;;;;;;;2.40;0.80;;;;;;;;;;6220212;23;20727;-91
2024/01/18 03:16:55;;;;;;;1.13;1.03;;;;;;;;;;6192242;23;20379;-92
2024/01/18 03:19:21;;;;;;;1.40;1.07;;;;;;;;;;6193341;23;20722;-92
2024/01/18 03:21:47;;;;;;;1.03;0.70;;;;;;;;;;6216184;23;20409;-91
2024/01/18 03:24:16;;;;;;;1.10;1.00;;;;;;;;;;6193263;23;20380;-91
2024/01/18 03:26:42;;;;;;;1.57;1.10;;;;;;;;;;6216503;23;20363;-90
2024/01/18 03:29:09;;;;;;;1.20;1.10;;;;;;;;;;6193890;23;20384;-91
2024/01/18 03:31:38;;;;;;;0.90;0.80;;;;;;;;;;6189279;23;20384;-91
2024/01/18 03:34:04;;;;;;;0.80;0.80;;;;;;;;;;6189758;23;20387;-90
2024/01/18 03:36:30;;;;;;;1.63;0.87;;;;;;;;;;6191399;23;20986;-90
2024/01/18 03:38:56;;;;;;;0.80;0.70;;;;;;;;;;6191814;23;20380;-88
2024/01/18 03:41:22;;;;;;;2.53;1.10;;;;;;;;;;6192613;23;20950;-90
2024/01/18 03:43:48;;;;;;;3.00;1.83;;;;;;;;;;6190724;23;20486;-90
2024/01/18 03:46:14;;;;;;;1.97;1.47;;;;;;;;;;6189511;23;20376;-91
2024/01/18 03:48:40;;;;;;;2.40;1.27;;;;;;;;;;6192921;23;20447;-90
2024/01/18 03:51:07;;;;;;;2.73;2.10;;;;;;;;;;6189398;23;20454;-91
2024/01/18 03:53:33;;;;;;;2.93;2.50;;;;;;;;;;6189802;23;20404;-90
2024/01/18 03:55:59;;;;;;;3.10;2.40;;;;;;;;;;6191078;23;20395;-90
2024/01/18 03:58:25;;;;;;;5.93;3.47;;;;;;;;;;6191188;23;20471;-90
2024/01/18 04:00:51;;;;;;;2.40;2.20;;;;;;;;;;6190487;23;20380;-90
2024/01/18 04:03:17;;;;;;;4.77;3.50;;;;;;;;;;6192582;23;20376;-90
2024/01/18 04:05:43;;;;;;;4.70;3.63;;;;;;;;;;6191290;23;20368;-91
2024/01/18 04:08:09;;;;;;;4.90;4.37;;;;;;;;;;6190468;23;20403;-90
2024/01/18 04:10:35;;;;;;;6.47;5.00;;;;;;;;;;6190735;23;20434;-88
2024/01/18 04:13:02;;;;;;;8.00;5.50;;;;;;;;;;6190705;23;20403;-89
2024/01/18 04:15:28;;;;;;;6.23;4.80;;;;;;;;;;6188208;23;20376;-90
2024/01/18 04:17:54;;;;;;;6.60;4.67;;;;;;;;;;6186244;23;20395;-90
2024/01/18 04:20:26;;;;;;;7.47;5.57;;;;;;;;;;6188215;23;20403;-91
2024/01/18 04:22:52;;;;;;;8.17;6.00;;;;;;;;;;6187039;23;20411;-89
2024/01/18 04:25:18;;;;;;;7.00;5.73;;;;;;;;;;6187022;23;20450;-90
2024/01/18 04:27:44;;;;;;;7.60;6.30;;;;;;;;;;6186872;23;20399;-90
2024/01/18 04:30:11;;;;;;;8.53;5.87;;;;;;;;;;6189612;23;20441;-90
2024/01/18 04:32:37;;;;;;;7.50;5.50;;;;;;;;;;6187200;23;20410;-91
2024/01/18 04:35:03;;;;;;;7.17;6.43;;;;;;;;;;6191809;23;20872;-91
2024/01/18 04:37:29;;;;;;;8.17;5.70;;;;;;;;;;6213258;23;20396;-90
2024/01/18 04:39:55;;;;;;;7.63;6.17;;;;;;;;;;6190577;23;20368;-91
2024/01/18 04:42:21;;;;;;;7.20;5.43;;;;;;;;;;6190467;23;20450;-90
2024/01/18 04:44:47;;;;;;;6.83;5.60;;;;;;;;;;6190659;23;20951;-91
2024/01/18 04:47:13;;;;;;;8.03;6.70;;;;;;;;;;6191729;23;20387;-90
2024/01/18 04:49:39;;;;;;;13.07;6.17;;;;;;;;;;6190089;23;20384;-90
2024/01/18 04:52:06;;;;;;;9.67;6.30;;;;;;;;;;6190473;23;20904;-94
2024/01/18 04:54:33;;;;;;;7.07;5.13;;;;;;;;;;6193451;23;20391;-90
2024/01/18 04:56:59;;;;;;;7.97;5.80;;;;;;;;;;6188262;23;20432;-90
2024/01/18 04:59:25;;;;;;;7.83;5.30;;;;;;;;;;6189441;23;20392;-90
2024/01/18 05:01:51;;;;;;;5.47;4.87;;;;;;;;;;6213544;23;20416;-90
2024/01/18 05:04:18;;;;;;;7.90;6.97;;;;;;;;;;6189492;23;20380;-90
2024/01/18 05:06:44;;;;;;;6.57;5.87;;;;;;;;;;6188747;23;20399;-90
2024/01/18 05:09:11;;;;;;;6.40;5.80;;;;;;;;;;6193734;23;20935;-91
2024/01/18 05:11:38;;;;;;;5.20;4.80;;;;;;;;;;6190440;23;20396;-91
2024/01/18 05:14:04;;;;;;;5.57;4.40;;;;;;;;;;6189592;23;20407;-91
2024/01/18 05:16:32;;;;;;;8.97;6.43;;;;;;;;;;6190415;23;20431;-91
2024/01/18 05:18:58;;;;;;;5.43;4.93;;;;;;;;;;6193153;23;21139;-91
2024/01/18 05:21:24;;;;;;;6.17;5.17;;;;;;;;;;6191615;23;20463;-92
2024/01/18 05:23:50;;;;;;;6.70;5.93;;;;;;;;;;6193589;23;20483;-90
2024/01/18 05:26:19;;;;;;;7.57;4.83;;;;;;;;;;6191589;23;20411;-91
2024/01/18 05:28:46;;;;;;;6.10;5.33;;;;;;;;;;6194516;23;20404;-92
2024/01/18 05:31:12;;;;;;;7.00;5.40;;;;;;;;;;6190207;23;20446;-93
2024/01/18 05:33:38;;;;;;;8.63;5.30;;;;;;;;;;6188866;23;20392;-93
2024/01/18 05:36:04;;;;;;;10.50;6.27;;;;;;;;;;6190289;23;20392;-92
2024/01/18 05:38:33;;;;;;;5.50;5.00;;;;;;;;;;6193041;23;20383;-94
2024/01/18 05:40:59;;;;;;;7.40;5.43;;;;;;;;;;6188730;23;20406;-92
2024/01/18 05:43:25;;;;;;;6.47;5.23;;;;;;;;;;6188814;23;20450;-92
2024/01/18 05:45:51;;;;;;;7.70;6.23;;;;;;;;;;6190396;23;20367;-91
2024/01/18 05:48:18;;;;;;;5.93;4.83;;;;;;;;;;6190837;23;20976;-91
2024/01/18 05:50:44;;;;;;;8.80;4.90;;;;;;;;;;6191328;23;20392;-93
2024/01/18 05:53:10;;;;;;;9.60;6.13;;;;;;;;;;6192316;23;20866;-92
2024/01/18 05:55:37;;;;;;;10.40;5.47;;;;;;;;;;6192562;23;20419;-94
2024/01/18 05:58:03;;;;;;;6.50;5.80;;;;;;;;;;6193278;23;20855;-93
2024/01/18 06:00:29;;;;;;;5.90;4.60;;;;;;;;;;6191923;23;20894;-92
2024/01/18 06:02:56;;;;;;;4.90;4.20;;;;;;;;;;6192025;23;20443;-90
2024/01/18 06:05:22;;;;;;;6.40;3.67;;;;;;;;;;6192209;23;20420;-93
2024/01/18 06:07:49;;;;;;;3.87;3.43;;;;;;;;;;6193166;23;20689;-91
2024/01/18 06:10:15;;;;;;;3.87;3.50;;;;;;;;;;6194578;23;20376;-91
2024/01/18 06:12:41;;;;;;;4.23;3.87;;;;;;;;;;6191159;23;20391;-89
2024/01/18 06:15:10;;;;;;;4.33;3.03;;;;;;;;;;6190677;23;20862;-90
2024/01/18 06:17:36;;;;;;;3.97;2.60;;;;;;;;;;6191664;23;20399;-89
2024/01/18 06:20:02;;;;;;;2.67;2.30;;;;;;;;;;6190548;23;20372;-89
2024/01/18 06:22:28;;;;;;;2.63;2.43;;;;;;;;;;6193361;23;20420;-91
2024/01/18 06:24:54;;;;;;;2.37;2.17;;;;;;;;;;6194293;23;20382;-88
2024/01/18 06:27:20;;;;;;;3.43;2.93;;;;;;;;;;6193580;23;20420;-89
2024/01/18 06:29:47;;;;;;;2.50;2.27;;;;;;;;;;6219641;23;20388;-88
2024/01/18 06:32:13;;;;;;;3.50;2.80;;;;;;;;;;6190782;23;20381;-90
2024/01/18 06:34:42;;;;;;;3.17;2.63;;;;;;;;;;6191081;23;20380;-90
2024/01/18 06:37:08;;;;;;;4.43;2.83;;;;;;;;;;6213305;23;20463;-89
2024/01/18 06:39:34;;;;;;;3.33;2.83;;;;;;;;;;6190817;23;20372;-88
2024/01/18 06:42:03;;;;;;;2.53;2.23;;;;;;;;;;6189750;23;20423;-89
2024/01/18 06:44:30;;;;;;;3.03;2.67;;;;;;;;;;6170341;23;20672;-91
2024/01/18 06:46:56;;;;;;;3.57;2.77;;;;;;;;;;6193240;23;20380;-90
2024/01/18 06:49:22;;;;;;;2.73;2.20;;;;;;;;;;6217943;23;20361;-90
2024/01/18 06:51:48;;;;;;;1.83;1.73;;;;;;;;;;6190936;23;20379;-90
2024/01/18 06:54:14;;;;;;;2.57;2.37;;;;;;;;;;6192207;23;20479;-91
2024/01/18 06:56:40;;;;;;;2.23;2.03;;;;;;;;;;6192833;23;20399;-90
2024/01/18 06:59:06;;;;;;;2.53;1.97;;;;;;;;;;6165197;23;20384;-90
2024/01/18 07:01:33;;;;;;;1.90;1.80;;;;;;;;;;6162716;23;20434;-90
2024/01/18 07:03:59;;;;;;;1.90;1.80;;;;;;;;;;6164740;23;20538;-90
2024/01/18 07:06:25;;;;;;;1.73;1.60;;;;;;;;;;6163315;23;20392;-90
2024/01/18 07:08:52;;;;;;;1.47;1.37;;;;;;;;;;6166198;23;20391;-89
2024/01/18 07:11:18;;;;;;;2.37;2.00;;;;;;;;;;6164041;23;20380;-88
2024/01/18 07:13:44;;;;;;;2.00;1.90;;;;;;;;;;6162919;23;20403;-89
2024/01/18 07:16:10;;;;;;;1.80;1.70;;;;;;;;;;6164588;23;20551;-87
2024/01/18 07:18:36;;;;;;;1.80;1.70;;;;;;;;;;6162964;23;20468;-88
2024/01/18 07:21:02;;;;;;;2.03;1.93;;;;;;;;;;6162676;23;20404;-88
2024/01/18 07:23:28;;;;;;;3.10;1.70;;;;;;;;;;6161186;23;20472;-89
2024/01/18 07:25:54;;;;;;;1.83;1.67;;;;;;;;;;6161515;23;20490;-88
2024/01/18 07:28:21;;;;;;;2.63;2.10;;;;;;;;;;6179002;23;20483;-88
2024/01/18 07:30:47;;;;;;;3.30;2.50;;;;;;;;;;6186283;23;20387;-89
2024/01/18 07:33:13;;;;;;;3.13;2.10;;;;;;;;;;6188216;23;20487;-90
2024/01/18 07:35:39;;;;;;;2.47;1.97;;;;;;;;;;6190126;23;20380;-90
2024/01/18 07:38:05;;;;;;;3.07;1.80;;;;;;;;;;6187751;23;20400;-89
2024/01/18 07:40:31;;;;;;;2.10;1.60;;;;;;;;;;6188376;23;20395;-90
2024/01/18 07:42:57;;;;;;;1.80;1.70;;;;;;;;;;6187423;23;20514;-89
2024/01/18 07:45:23;;;;;;;2.50;2.33;;;;;;;;;;6188135;23;20860;-90
2024/01/18 07:47:49;;;;;;;2.10;1.90;;;;;;;;;;6165034;23;20395;-90
2024/01/18 07:50:16;;;;;;;3.63;3.20;;;;;;;;;;6158880;23;20380;-90
2024/01/18 07:52:43;;;;;;;3.90;2.77;;;;;;;;;;6161241;23;20400;-90
2024/01/18 07:55:08;;;;;;;5.63;2.73;;;;;;;;;;6163515;23;20384;-89
2024/01/18 07:57:36;;;;;;;5.17;3.70;;;;;;;;;;6162883;23;20395;-89
2024/01/18 08:00:03;;;;;;;3.57;3.23;;;;;;;;;;6162217;23;20396;-90
2024/01/18 08:02:29;;;;;;;4.30;3.93;;;;;;;;;;6162705;23;20432;-90
2024/01/18 08:04:55;;;;;;;3.93;3.53;;;;;;;;;;6166965;23;20372;-89
2024/01/18 08:07:21;;;;;;;2.87;2.67;;;;;;;;;;6161204;23;20383;-89
2024/01/18 08:09:47;;;;;;;3.63;3.30;;;;;;;;;;6165922;23;20383;-90
2024/01/18 08:12:13;;;;;;;2.90;2.60;;;;;;;;;;6162731;23;20455;-89
2024/01/18 08:14:42;;;;;;;2.17;1.90;;;;;;;;;;6163585;23;20387;-89
2024/01/18 08:17:08;;;;;;;3.17;2.00;;;;;;;;;;6165848;23;20394;-89
2024/01/18 08:19:34;;;;;;;2.53;2.33;;;;;;;;;;6195839;23;20400;-89
2024/01/18 08:22:00;;;;;;;4.03;2.30;;;;;;;;;;6192041;23;20430;-91
2024/01/18 08:24:26;;;;;;;2.40;2.20;;;;;;;;;;6191874;23;20716;-90
2024/01/18 08:26:52;;;;;;;2.80;2.60;;;;;;;;;;6190607;23;20715;-91
2024/01/18 08:29:18;;;;;;;3.00;2.17;;;;;;;;;;6147434;23;1069510;-90
2024/01/18 08:31:44;;;;;;;3.13;2.83;;;;;;;;;;6193681;23;20490;-89
2024/01/18 08:34:10;;;;;;;3.33;3.00;;;;;;;;;;6167071;23;20391;-89
2024/01/18 08:36:36;;;;;;;2.33;2.10;;;;;;;;;;6170174;23;20396;-90
2024/01/18 08:39:02;;;;;;;2.70;2.50;;;;;;;;;;6166912;23;20386;-90
2024/01/18 08:41:28;;;;;;;2.20;2.00;;;;;;;;;;6167376;23;20458;-91
2024/01/18 08:43:54;;;;;;;2.70;2.30;;;;;;;;;;6167209;23;20360;-89
2024/01/18 08:46:23;;;;;;;3.13;2.83;;;;;;;;;;6168637;23;20379;-89
2024/01/18 08:48:49;;;;;;;1.90;1.80;;;;;;;;;;6165058;23;20439;-89
2024/01/18 08:51:15;;;;;;;3.43;2.20;;;;;;;;;;6166888;23;20380;-90
2024/01/18 08:53:44;;;;;;;2.50;2.20;;;;;;;;;;6161489;23;20372;-90
2024/01/18 08:56:12;;;;;;;3.23;2.93;;;;;;;;;;6165024;23;20447;-88
2024/01/18 08:58:38;;;;;;;2.47;2.27;;;;;;;;;;6164728;23;20767;-89
2024/01/18 09:01:04;;;;;;;3.60;2.50;;;;;;;;;;6166475;23;20456;-89
2024/01/18 09:03:30;;;;;;;3.00;2.23;;;;;;;;;;6185356;23;20829;-88
2024/01/18 09:05:56;;;;;;;2.40;2.20;;;;;;;;;;6195483;23;20376;-91
2024/01/18 09:08:22;;;;;;;3.00;2.53;;;;;;;;;;6191332;23;20402;-91
2024/01/18 09:10:49;;;;;;;2.20;1.70;;;;;;;;;;6194616;23;20382;-91
2024/01/18 09:13:15;;;;;;;2.70;2.13;;;;;;;;;;6191262;23;20473;-91
2024/01/18 09:15:41;;;;;;;1.63;1.20;;;;;;;;;;6191647;23;20384;-91
2024/01/18 09:18:10;;;;;;;2.60;1.80;;;;;;;;;;6189411;23;20394;-91
2024/01/18 09:20:37;;;;;;;1.80;1.17;;;;;;;;;;6188808;23;20372;-91
2024/01/18 09:23:03;;;;;;;2.20;1.73;;;;;;;;;;6190421;23;20424;-89
2024/01/18 09:25:31;;;;;;;2.37;1.97;;;;;;;;;;6194260;23;20568;-90
2024/01/18 09:27:57;;;;;;;2.10;1.97;;;;;;;;;;6192789;23;20490;-89
2024/01/18 09:30:23;;;;;;;1.50;1.37;;;;;;;;;;6191498;23;20395;-88
2024/01/18 09:32:50;;;;;;;1.40;1.30;;;;;;;;;;6189968;23;20476;-90
2024/01/18 09:35:16;;;;;;;2.10;1.33;;;;;;;;;;6188257;23;20384;-89
2024/01/18 09:37:42;;;;;;;1.83;1.20;;;;;;;;;;6190625;23;20767;-89
2024/01/18 09:40:11;;;;;;;1.00;1.00;;;;;;;;;;6189215;23;20383;-88
2024/01/18 09:42:37;;;;;;;0.93;0.90;;;;;;;;;;6192534;23;20423;-90
2024/01/18 09:45:07;;;;;;;1.63;1.13;;;;;;;;;;6187977;23;20383;-89
2024/01/18 09:47:33;;;;;;;1.40;1.30;;;;;;;;;;6214860;23;20364;-90
2024/01/18 09:50:05;;;;;;;2.30;1.07;;;;;;;;;;6191361;23;20510;-96
2024/01/18 09:52:33;;;;;;;1.00;0.90;;;;;;;;;;6206371;23;20388;-90
2024/01/18 09:54:59;;;;;;;1.07;1.00;;;;;;;;;;6190851;23;20851;-91
2024/01/18 09:57:29;;;;;;;2.00;1.90;;;;;;;;;;6193658;23;20385;-91
2024/01/18 09:59:56;;;;;;;1.33;1.23;;;;;;;;;;6214894;23;20375;-92
2024/01/18 10:02:22;;;;;;;1.40;1.30;;;;;;;;;;6191867;23;20915;-89
2024/01/18 10:04:48;;;;;;;1.97;1.80;;;;;;;;;;6189919;23;20746;-91
2024/01/18 10:07:14;;;;;;;1.37;1.03;;;;;;;;;;6189348;23;20526;-91
2024/01/18 10:09:40;;;;;;;1.70;1.47;;;;;;;;;;6190248;23;20383;-91
2024/01/18 10:12:06;;;;;;;1.50;1.27;;;;;;;;;;6191564;23;20382;-91
2024/01/18 10:14:50;;;;;;;1.10;1.00;;;;;;;;;;6191124;23;20848;-88
2024/01/18 10:17:22;;;;;;;2.10;1.17;;;;;;;;;;6192082;23;20712;-92
2024/01/18 10:19:52;;;;;;;1.33;1.23;;;;;;;;;;6190886;23;20895;-90
2024/01/18 10:22:18;;;;;;;1.60;1.50;;;;;;;;;;6193577;23;20419;-92
2024/01/18 10:24:44;;;;;;;3.17;1.53;;;;;;;;;;6191282;23;20383;-89
2024/01/18 10:27:10;;;;;;;1.70;1.33;;;;;;;;;;6191245;23;20416;-90
2024/01/18 10:29:36;;;;;;;1.13;1.13;;;;;;;;;;6190999;23;20849;-89
2024/01/18 10:32:09;;;;;;;1.33;1.23;;;;;;;;;;6194028;23;20395;-90
2024/01/18 10:34:35;;;;;;;1.50;1.27;;;;;;;;;;6189220;23;20380;-90
2024/01/18 10:37:01;;;;;;;1.07;0.90;;;;;;;;;;6216156;23;20383;-90
2024/01/18 10:39:27;;;;;;;0.97;0.97;;;;;;;;;;6188133;23;20395;-90
2024/01/18 10:41:53;;;;;;;0.90;0.87;;;;;;;;;;6191582;23;20683;-88
2024/01/18 10:44:20;;;;;;;2.30;1.63;;;;;;;;;;6188806;23;20915;-90
2024/01/18 10:46:46;;;;;;;1.33;1.23;;;;;;;;;;6189983;23;20404;-88
2024/01/18 10:49:12;;;;;;;1.40;1.30;;;;;;;;;;6186414;23;20395;-89
2024/01/18 10:51:39;;;;;;;1.23;1.10;;;;;;;;;;6188083;23;20384;-89
2024/01/18 10:54:09;;;;;;;1.60;1.50;;;;;;;;;;6185859;23;20856;-88
2024/01/18 10:56:36;;;;;;;0.73;0.73;;;;;;;;;;6210577;23;20457;-89
2024/01/18 10:59:04;;;;;;;1.03;0.93;;;;;;;;;;6186429;23;20380;-89
2024/01/18 11:01:30;;;;;;;1.53;1.37;;;;;;;;;;6187842;23;20431;-89
2024/01/18 11:03:56;;;;;;;2.20;1.30;;;;;;;;;;6186198;23;20388;-88
2024/01/18 11:06:22;;;;;;;1.27;1.17;;;;;;;;;;6192033;23;20391;-90
2024/01/18 11:08:49;;;;;;;1.70;1.60;;;;;;;;;;6192144;23;20395;-90
2024/01/18 11:11:20;;;;;;;2.03;1.60;;;;;;;;;;6190248;23;20387;-89
2024/01/18 11:13:46;;;;;;;1.87;1.63;;;;;;;;;;6190807;23;20372;-89
2024/01/18 11:16:12;;;;;;;2.03;1.83;;;;;;;;;;6186837;23;20500;-87
2024/01/18 11:18:38;;;;;;;1.27;1.17;;;;;;;;;;6189559;23;20383;-89
2024/01/18 11:21:06;;;;;;;1.77;1.20;;;;;;;;;;6211801;23;20374;-89
2024/01/18 11:23:39;;;;;;;1.80;1.13;;;;;;;;;;6188468;23;20784;-90
2024/01/18 11:26:05;;;;;;;1.97;1.80;;;;;;;;;;6187174;23;20380;-90
2024/01/18 11:28:31;;;;;;;1.60;1.50;;;;;;;;;;6188736;23;20502;-91
2024/01/18 11:30:59;;;;;;;1.30;1.20;;;;;;;;;;6189609;23;20408;-91
2024/01/18 11:33:25;;;;;;;2.07;1.90;;;;;;;;;;6190408;23;20884;-92
2024/01/18 11:35:51;;;;;;;1.50;1.00;;;;;;;;;;6188747;23;20403;-93
2024/01/18 11:38:18;;;;;;;4.20;1.93;;;;;;;;;;6193458;23;20388;-93
2024/01/18 11:40:44;;;;;;;3.33;3.00;;;;;;;;;;6188029;23;20485;-92
2024/01/18 11:43:11;;;;;;;2.70;1.87;;;;;;;;;;6187936;23;20433;-91
2024/01/18 11:45:38;;;;;;;2.23;1.80;;;;;;;;;;6186248;23;20380;-90
2024/01/18 11:48:04;;;;;;;2.00;1.90;;;;;;;;;;6186657;23;20387;-91
2024/01/18 11:50:30;;;;;;;2.70;2.03;;;;;;;;;;6186387;23;20693;-92
2024/01/18 11:52:56;;;;;;;3.40;2.80;;;;;;;;;;6185734;23;21152;-92
2024/01/18 11:55:24;;;;;;;3.00;1.97;;;;;;;;;;6187043;23;20827;-91
2024/01/18 11:57:50;;;;;;;3.30;2.77;;;;;;;;;;6187941;23;20390;-91
2024/01/18 12:00:16;;;;;;;4.00;3.10;;;;;;;;;;6186909;23;20400;-90
2024/01/18 12:02:45;;;;;;;4.00;3.53;;;;;;;;;;6191068;23;20424;-90
2024/01/18 12:05:11;;;;;;;2.67;2.47;;;;;;;;;;6190335;23;20463;-91
2024/01/18 12:07:38;;;;;;;1.60;1.50;;;;;;;;;;6195853;23;20376;-90
2024/01/18 12:10:05;;;;;;;4.60;2.60;;;;;;;;;;6191788;23;20953;-91
2024/01/18 12:12:31;;;;;;;1.97;1.77;;;;;;;;;;6195206;23;20396;-91
2024/01/18 12:14:57;;;;;;;2.70;2.20;;;;;;;;;;6191981;23;20399;-89
2024/01/18 12:17:23;;;;;;;3.37;2.63;;;;;;;;;;6216025;23;20380;-90
2024/01/18 12:19:49;;;;;;;5.70;3.10;;;;;;;;;;6190694;23;20883;-90
2024/01/18 12:22:18;;;;;;;5.87;4.50;;;;;;;;;;6191136;23;20428;-90
2024/01/18 12:24:44;;;;;;;7.23;5.27;;;;;;;;;;6192206;23;20375;-90
2024/01/18 12:27:10;;;;;;;3.77;3.37;;;;;;;;;;6191142;23;20419;-90
2024/01/18 12:29:38;;;;;;;6.70;4.83;;;;;;;;;;6215448;23;20359;-90
2024/01/18 12:32:04;;;;;;;5.30;4.20;;;;;;;;;;6189768;23;20843;-90
2024/01/18 12:34:32;;;;;;;3.90;2.80;;;;;;;;;;6191544;23;20561;-91
2024/01/18 12:36:58;;;;;;;5.93;3.97;;;;;;;;;;6190844;23;20768;-91
2024/01/18 12:39:24;;;;;;;5.43;4.67;;;;;;;;;;6193328;23;20384;-90
2024/01/18 12:41:52;;;;;;;5.13;4.33;;;;;;;;;;6213804;23;21146;-89
2024/01/18 12:44:18;;;;;;;4.73;4.30;;;;;;;;;;6188505;23;20384;-90
2024/01/18 12:46:44;;;;;;;6.17;4.67;;;;;;;;;;6189570;23;20494;-90
2024/01/18 12:49:11;;;;;;;3.47;3.17;;;;;;;;;;6189728;23;20376;-89
2024/01/18 12:51:38;;;;;;;6.40;4.70;;;;;;;;;;6191072;23;20379;-90
2024/01/18 12:54:04;;;;;;;5.03;4.53;;;;;;;;;;6194421;23;20384;-90
2024/01/18 12:56:31;;;;;;;7.00;4.23;;;;;;;;;;6192645;23;20475;-91
2024/01/18 12:58:58;;;;;;;5.27;4.77;;;;;;;;;;6217801;23;20379;-89
2024/01/18 13:01:30;;;;;;;5.80;4.53;;;;;;;;;;6191943;23;20438;-90
2024/01/18 13:04:08;;;;;;;6.30;5.70;;;;;;;;;;6193454;23;20376;-90
2024/01/18 13:06:35;;;;;;;7.10;5.90;;;;;;;;;;6191700;23;20391;-90
2024/01/18 13:09:02;;;;;;;6.13;5.37;;;;;;;;;;6194555;23;20392;-89
2024/01/18 13:11:29;;;;;;;6.83;5.23;;;;;;;;;;6218728;23;20914;-90
2024/01/18 13:13:55;;;;;;;5.53;5.03;;;;;;;;;;6191832;23;20379;-88
2024/01/18 13:16:23;;;;;;;7.33;5.80;;;;;;;;;;6191275;23;20840;-90
2024/01/18 13:18:49;;;;;;;5.10;4.70;;;;;;;;;;6215828;23;20714;-90
2024/01/18 13:21:15;;;;;;;6.00;5.10;;;;;;;;;;6191096;23;20368;-90
2024/01/18 13:23:41;;;;;;;10.47;6.73;;;;;;;;;;6189820;23;20416;-89
2024/01/18 13:26:07;;;;;;;6.63;4.90;;;;;;;;;;6193923;23;20425;-91
2024/01/18 13:28:33;;;;;;;10.07;4.77;;;;;;;;;;6190852;23;20404;-90
2024/01/18 13:30:59;;;;;;;9.10;8.03;;;;;;;;;;6191433;23;20388;-90
2024/01/18 13:33:26;;;;;;;7.93;5.03;;;;;;;;;;6194593;23;20407;-90
2024/01/18 13:35:51;;;;;;;3.23;2.93;;;;;;;;;;6192507;23;20376;-90
2024/01/18 13:38:17;;;;;;;5.67;4.60;;;;;;;;;;6192333;23;20369;-88
2024/01/18 13:40:43;;;;;;;6.90;5.37;;;;;;;;;;6193729;23;20376;-91
2024/01/18 13:43:09;;;;;;;8.23;6.30;;;;;;;;;;6193337;23;20756;-90
2024/01/18 13:45:36;;;;;;;9.87;5.80;;;;;;;;;;6195695;23;20380;-90
2024/01/18 13:48:02;;;;;;;6.67;5.67;;;;;;;;;;6192594;23;20392;-90
2024/01/18 13:50:28;;;;;;;8.17;5.00;;;;;;;;;;6219394;23;20377;-90
2024/01/18 13:52:54;;;;;;;7.47;6.43;;;;;;;;;;6192560;23;20938;-90
2024/01/18 13:55:21;;;;;;;8.27;6.03;;;;;;;;;;6195743;23;20376;-90
2024/01/18 13:57:47;;;;;;;9.63;7.03;;;;;;;;;;6218119;23;20368;-90
2024/01/18 14:00:13;;;;;;;9.37;5.37;;;;;;;;;;6192611;23;20448;-90
2024/01/18 14:02:39;;;;;;;13.20;7.00;;;;;;;;;;6192659;23;20422;-90
2024/01/18 14:05:05;;;;;;;8.53;6.50;;;;;;;;;;6193844;23;20380;-89
2024/01/18 14:07:31;;;;;;;7.50;6.50;;;;;;;;;;6191922;23;20369;-90
2024/01/18 14:09:57;;;;;;;4.53;4.07;;;;;;;;;;6190188;23;20370;-89
2024/01/18 14:12:23;;;;;;;5.83;5.20;;;;;;;;;;6192182;23;20671;-90
2024/01/18 14:14:50;;;;;;;10.83;5.07;;;;;;;;;;6191207;23;20384;-89
2024/01/18 14:17:16;;;;;;;6.10;4.63;;;;;;;;;;6217216;23;20376;-89
2024/01/18 14:19:42;;;;;;;12.03;8.03;;;;;;;;;;6189899;23;20449;-88
2024/01/18 14:22:08;;;;;;;9.13;7.00;;;;;;;;;;6191239;23;20423;-89
2024/01/18 14:24:34;;;;;;;10.07;7.27;;;;;;;;;;6189724;23;20380;-89
2024/01/18 14:27:02;;;;;;;6.50;4.63;;;;;;;;;;6193266;23;20380;-89
2024/01/18 14:29:28;;;;;;;4.07;3.77;;;;;;;;;;6165013;23;20395;-89
2024/01/18 14:31:55;;;;;;;10.47;6.53;;;;;;;;;;6190932;23;20392;-89
2024/01/18 14:34:21;;;;;;;7.77;7.00;;;;;;;;;;6190628;23;20376;-89
2024/01/18 14:36:47;;;;;;;9.03;6.27;;;;;;;;;;6190984;23;20470;-88
2024/01/18 14:39:15;;;;;;;7.27;5.27;;;;;;;;;;6189632;23;20376;-88